createdAt,value
2023-03-07T00:03:26.286Z,21.10
2023-03-07T00:06:05.293Z,21.90
2023-03-07T00:08:33.059Z,21.70
2023-03-07T00:11:04.628Z,22.70
2023-03-07T00:13:32.555Z,21.70
2023-03-07T00:16:13.196Z,19.80
2023-03-07T00:18:40.880Z,21.00
2023-03-07T00:21:10.712Z,21.40
2023-03-07T00:23:39.726Z,22.50
2023-03-07T00:26:17.986Z,23.10
2023-03-07T00:28:49.488Z,24.30
2023-03-07T00:31:16.824Z,25.20
2023-03-07T00:33:43.626Z,22.10
2023-03-07T00:36:11.742Z,22.60
2023-03-07T00:38:38.511Z,22.90
2023-03-07T00:41:07.132Z,23.30
2023-03-07T00:43:35.129Z,23.60
2023-03-07T00:46:02.378Z,24.00
2023-03-07T00:48:29.174Z,26.10
2023-03-07T00:50:56.345Z,27.30
2023-03-07T00:53:22.818Z,24.60
2023-03-07T00:56:06.125Z,28.40
2023-03-07T00:58:35.971Z,25.10
2023-03-07T01:01:04.688Z,24.60
2023-03-07T01:03:33.299Z,23.90
2023-03-07T01:06:04.879Z,24.60
2023-03-07T01:08:31.729Z,26.30
2023-03-07T01:11:00.650Z,26.70
2023-03-07T01:13:27.640Z,27.70
2023-03-07T01:18:20.577Z,23.90
2023-03-07T01:20:47.302Z,25.50
2023-03-07T01:23:13.884Z,27.70
2023-03-07T01:25:42.189Z,26.60
2023-03-07T01:28:12.655Z,26.70
2023-03-07T01:30:44.591Z,26.70
2023-03-07T01:33:12.460Z,27.30
2023-03-07T01:35:39.465Z,28.00
2023-03-07T01:38:06.335Z,27.40
2023-03-07T01:40:32.760Z,26.60
2023-03-07T01:43:28.860Z,24.50
2023-03-07T01:46:17.304Z,26.80
2023-03-07T01:48:52.143Z,26.10
2023-03-07T01:51:18.728Z,26.80
2023-03-07T01:53:46.377Z,27.30
2023-03-07T01:56:13.140Z,27.30
2023-03-07T01:58:40.007Z,28.80
2023-03-07T02:01:08.885Z,24.20
2023-03-07T02:04:01.585Z,25.20
2023-03-07T02:06:30.561Z,25.30
2023-03-07T02:08:58.050Z,25.90
2023-03-07T02:11:25.777Z,24.90
2023-03-07T02:13:52.288Z,23.00
2023-03-07T02:16:19.614Z,23.60
2023-03-07T02:18:49.441Z,25.60
2023-03-07T02:21:22.488Z,25.30
2023-03-07T02:26:28.130Z,24.70
2023-03-07T02:28:54.967Z,23.50
2023-03-07T02:31:21.475Z,23.50
2023-03-07T02:33:49.188Z,24.70
2023-03-07T02:36:23.121Z,24.30
2023-03-07T02:38:51.047Z,26.50
2023-03-07T02:41:20.821Z,25.40
2023-03-07T02:43:47.142Z,25.90
2023-03-07T02:46:13.961Z,23.50
2023-03-07T02:48:40.543Z,24.40
2023-03-07T02:51:07.164Z,24.90
2023-03-07T02:53:33.699Z,24.00
2023-03-07T02:56:00.063Z,24.00
2023-03-07T02:58:26.496Z,23.40
2023-03-07T03:00:53.036Z,23.40
2023-03-07T03:03:19.464Z,23.20
2023-03-07T03:05:45.980Z,27.20
2023-03-07T03:08:12.783Z,25.50
2023-03-07T03:10:39.378Z,23.30
2023-03-07T03:13:05.773Z,24.10
2023-03-07T03:15:32.223Z,22.80
2023-03-07T03:17:58.846Z,24.10
2023-03-07T03:20:26.475Z,24.50
2023-03-07T03:22:53.787Z,24.50
2023-03-07T03:25:23.471Z,25.10
2023-03-07T03:27:50.343Z,24.90
2023-03-07T03:30:17.218Z,28.10
2023-03-07T03:32:44.011Z,28.50
2023-03-07T03:35:10.973Z,27.20
2023-03-07T03:37:37.545Z,24.30
2023-03-07T03:40:13.635Z,25.90
2023-03-07T03:42:42.613Z,24.20
2023-03-07T03:45:10.679Z,27.90
2023-03-07T03:47:37.834Z,28.30
2023-03-07T03:52:31.000Z,26.90
2023-03-07T03:54:57.500Z,29.00
2023-03-07T03:57:24.139Z,30.50
2023-03-07T03:59:51.131Z,29.40
2023-03-07T04:04:44.571Z,25.50
2023-03-07T04:07:10.987Z,29.50
2023-03-07T04:09:37.319Z,27.40
2023-03-07T04:12:04.020Z,28.50
2023-03-07T04:14:30.398Z,26.10
2023-03-07T04:16:57.060Z,26.90
2023-03-07T04:19:23.802Z,27.50
2023-03-07T04:21:50.495Z,30.00
2023-03-07T04:24:17.021Z,29.00
2023-03-07T04:26:43.374Z,28.40
2023-03-07T04:29:09.952Z,26.00
2023-03-07T04:31:36.370Z,29.50
2023-03-07T04:34:03.233Z,29.20
2023-03-07T04:36:32.743Z,27.70
2023-03-07T04:38:59.167Z,26.10
2023-03-07T04:41:26.060Z,30.70
2023-03-07T04:46:19.516Z,27.90
2023-03-07T04:51:13.126Z,25.00
2023-03-07T04:53:39.774Z,25.20
2023-03-07T04:56:07.955Z,27.90
2023-03-07T04:58:35.056Z,25.50
2023-03-07T05:01:02.458Z,25.10
2023-03-07T05:03:29.757Z,27.40
2023-03-07T05:06:01.354Z,25.20
2023-03-07T05:08:28.041Z,25.40
2023-03-07T05:10:54.614Z,25.40
2023-03-07T05:13:21.056Z,22.50
2023-03-07T05:15:52.062Z,22.50
2023-03-07T05:18:18.582Z,23.40
2023-03-07T05:20:45.456Z,22.70
2023-03-07T05:23:12.472Z,23.50
2023-03-07T05:28:05.421Z,22.90
2023-03-07T05:30:31.906Z,22.20
2023-03-07T05:32:58.400Z,23.20
2023-03-07T05:35:25.217Z,20.90
2023-03-07T05:37:51.870Z,23.40
2023-03-07T05:40:18.625Z,21.30
2023-03-07T05:42:45.187Z,21.60
2023-03-07T05:45:11.746Z,21.50
2023-03-07T05:47:38.520Z,23.50
2023-03-07T05:50:06.215Z,24.10
2023-03-07T05:52:32.785Z,23.00
2023-03-07T05:54:59.441Z,23.30
2023-03-07T05:57:26.273Z,21.70
2023-03-07T05:59:52.709Z,19.30
2023-03-07T06:02:22.235Z,19.30
2023-03-07T06:04:49.152Z,21.50
2023-03-07T06:07:15.776Z,19.30
2023-03-07T06:09:42.211Z,19.60
2023-03-07T06:12:09.960Z,19.90
2023-03-07T06:14:36.436Z,20.50
2023-03-07T06:17:03.608Z,21.50
2023-03-07T06:19:30.393Z,19.90
2023-03-07T06:21:56.931Z,19.20
2023-03-07T06:24:23.288Z,19.80
2023-03-07T06:26:49.784Z,19.20
2023-03-07T06:29:16.176Z,18.40
2023-03-07T06:31:42.690Z,19.90
2023-03-07T06:34:09.865Z,19.90
2023-03-07T06:39:02.696Z,20.30
2023-03-07T06:41:29.608Z,22.70
2023-03-07T06:43:56.057Z,23.00
2023-03-07T06:46:22.575Z,23.00
2023-03-07T06:48:51.472Z,23.80
2023-03-07T06:51:17.902Z,22.60
2023-03-07T06:53:44.563Z,21.90
2023-03-07T06:56:11.062Z,20.80
2023-03-07T06:58:37.510Z,19.20
2023-03-07T07:01:05.188Z,21.20
2023-03-07T07:03:31.662Z,19.90
2023-03-07T07:05:58.194Z,20.00
2023-03-07T07:08:24.586Z,22.80
2023-03-07T07:10:51.184Z,24.20
2023-03-07T07:13:17.509Z,23.40
2023-03-07T07:15:43.945Z,20.70
2023-03-07T07:18:12.734Z,20.70
2023-03-07T07:20:39.174Z,19.30
2023-03-07T07:23:05.799Z,19.90
2023-03-07T07:25:32.344Z,20.50
2023-03-07T07:27:58.817Z,19.10
2023-03-07T07:30:25.344Z,20.00
2023-03-07T07:32:51.929Z,17.80
2023-03-07T07:35:18.487Z,22.90
2023-03-07T07:37:45.003Z,23.50
2023-03-07T07:40:12.064Z,22.70
2023-03-07T07:42:38.804Z,23.70
2023-03-07T07:45:06.245Z,22.70
2023-03-07T07:47:32.667Z,19.40
2023-03-07T07:49:59.236Z,19.40
2023-03-07T07:52:25.724Z,18.30
2023-03-07T07:54:52.256Z,19.30
2023-03-07T07:57:19.064Z,20.40
2023-03-07T07:59:46.153Z,19.50
2023-03-07T08:02:15.346Z,20.50
2023-03-07T08:04:42.433Z,18.40
2023-03-07T08:07:08.829Z,21.10
2023-03-07T08:09:35.406Z,20.50
2023-03-07T08:12:01.830Z,19.50
2023-03-07T08:14:28.537Z,18.00
2023-03-07T08:16:55.104Z,17.20
2023-03-07T08:19:21.468Z,16.10
2023-03-07T08:21:47.926Z,17.10
2023-03-07T08:24:14.306Z,17.50
2023-03-07T08:26:41.769Z,18.60
2023-03-07T08:29:08.352Z,17.80
2023-03-07T08:31:34.860Z,16.60
2023-03-07T08:34:01.264Z,16.10
2023-03-07T08:36:27.873Z,15.00
2023-03-07T08:38:54.231Z,16.40
2023-03-07T08:41:22.104Z,15.00
2023-03-07T08:43:48.799Z,16.80
2023-03-07T08:46:15.311Z,16.90
2023-03-07T08:48:41.738Z,14.40
2023-03-07T08:51:15.223Z,14.40
2023-03-07T08:53:45.438Z,14.80
2023-03-07T08:56:15.501Z,13.80
2023-03-07T08:58:42.124Z,13.90
2023-03-07T09:01:09.802Z,13.90
2023-03-07T09:03:36.489Z,12.50
2023-03-07T09:06:04.291Z,14.70
2023-03-07T09:08:31.635Z,15.70
2023-03-07T09:11:02.897Z,12.60
2023-03-07T09:13:29.298Z,13.90
2023-03-07T09:15:55.714Z,14.30
2023-03-07T09:18:22.402Z,12.60
2023-03-07T09:20:48.694Z,13.70
2023-03-07T09:23:15.063Z,11.90
2023-03-07T09:25:43.770Z,11.80
2023-03-07T09:28:10.124Z,12.40
2023-03-07T09:30:37.163Z,12.50
2023-03-07T09:33:03.537Z,12.90
2023-03-07T09:35:30.033Z,14.50
2023-03-07T09:37:56.460Z,15.10
2023-03-07T09:40:25.388Z,13.80
2023-03-07T09:43:13.659Z,13.40
2023-03-07T09:45:45.162Z,13.00
2023-03-07T09:48:49.603Z,13.90
2023-03-07T09:51:32.654Z,12.10
2023-03-07T09:54:02.390Z,12.60
2023-03-07T09:56:37.343Z,12.70
2023-03-07T09:59:34.957Z,12.20
2023-03-07T10:02:15.543Z,10.80
2023-03-07T10:04:47.981Z,12.00
2023-03-07T10:07:15.368Z,12.60
2023-03-07T10:09:43.522Z,11.80
2023-03-07T10:12:23.151Z,11.20
2023-03-07T10:15:08.444Z,10.60
2023-03-07T10:17:47.306Z,11.60
2023-03-07T10:23:22.325Z,11.60
2023-03-07T10:26:02.979Z,10.90
2023-03-07T10:28:31.695Z,11.00
2023-03-07T10:31:04.796Z,10.90
2023-03-07T10:33:31.326Z,9.90
2023-03-07T10:36:07.007Z,11.50
2023-03-07T10:38:39.350Z,10.80
2023-03-07T10:41:15.795Z,11.20
2023-03-07T10:43:43.965Z,11.20
2023-03-07T10:46:27.352Z,10.90
2023-03-07T10:48:57.735Z,9.30
2023-03-07T10:51:37.820Z,11.00
2023-03-07T10:54:05.958Z,9.10
2023-03-07T10:56:32.597Z,9.40
2023-03-07T10:59:04.330Z,9.20
2023-03-07T11:01:32.418Z,9.10
2023-03-07T11:03:58.902Z,9.20
2023-03-07T11:06:28.037Z,9.10
2023-03-07T11:08:55.565Z,8.80
2023-03-07T11:11:24.762Z,9.30
2023-03-07T11:14:04.791Z,8.60
2023-03-07T11:16:31.360Z,9.10
2023-03-07T11:18:57.953Z,8.40
2023-03-07T11:21:30.691Z,8.70
2023-03-07T11:24:06.157Z,8.70
2023-03-07T11:26:39.343Z,8.30
2023-03-07T11:29:14.643Z,9.10
2023-03-07T11:31:47.101Z,9.60
2023-03-07T11:34:25.827Z,10.10
2023-03-07T11:36:56.508Z,10.20
2023-03-07T11:39:33.879Z,9.40
2023-03-07T11:42:04.416Z,8.50
2023-03-07T11:44:53.374Z,10.00
2023-03-07T11:47:33.334Z,9.50
2023-03-07T11:50:12.512Z,8.30
2023-03-07T11:52:52.596Z,8.40
2023-03-07T11:55:37.092Z,8.30
2023-03-07T11:58:23.408Z,7.80
2023-03-07T12:00:59.100Z,8.30
2023-03-07T12:04:03.569Z,8.60
2023-03-07T12:06:42.836Z,8.50
2023-03-07T12:09:36.953Z,10.20
2023-03-07T12:12:27.017Z,8.50
2023-03-07T12:15:25.476Z,8.10
2023-03-07T12:18:03.096Z,7.80
2023-03-07T12:20:43.753Z,7.80
2023-03-07T12:23:15.930Z,7.70
2023-03-07T12:25:46.977Z,7.90
2023-03-07T12:28:41.567Z,9.20
2023-03-07T12:31:13.696Z,7.30
2023-03-07T12:33:51.357Z,8.60
2023-03-07T12:36:43.924Z,7.70
2023-03-07T12:39:24.901Z,7.90
2023-03-07T12:42:06.150Z,8.10
2023-03-07T12:44:44.035Z,7.10
2023-03-07T12:47:17.265Z,8.00
2023-03-07T12:50:17.574Z,8.90
2023-03-07T12:52:53.640Z,9.20
2023-03-07T12:55:47.126Z,9.80
2023-03-07T12:58:34.887Z,7.80
2023-03-07T13:01:05.108Z,7.00
2023-03-07T13:03:38.500Z,7.60
2023-03-07T13:06:06.228Z,7.40
2023-03-07T13:08:33.997Z,6.90
2023-03-07T13:11:00.614Z,6.90
2023-03-07T13:13:42.663Z,7.40
2023-03-07T13:16:31.663Z,6.90
2023-03-07T13:19:35.776Z,7.10
2023-03-07T13:22:04.348Z,5.90
2023-03-07T13:24:37.643Z,6.10
2023-03-07T13:27:13.832Z,6.50
2023-03-07T13:30:11.834Z,6.50
2023-03-07T13:32:47.989Z,6.70
2023-03-07T13:35:23.627Z,6.80
2023-03-07T13:38:03.486Z,6.90
2023-03-07T13:40:48.269Z,6.40
2023-03-07T13:43:25.623Z,6.30
2023-03-07T13:46:18.762Z,6.30
2023-03-07T13:48:48.296Z,6.90
2023-03-07T13:51:15.548Z,6.20
2023-03-07T13:53:47.786Z,6.80
2023-03-07T13:56:14.740Z,6.90
2023-03-07T13:59:08.786Z,7.40
2023-03-07T14:01:43.944Z,6.90
2023-03-07T14:04:33.216Z,7.10
2023-03-07T14:07:24.856Z,6.80
2023-03-07T14:10:23.071Z,5.70
2023-03-07T14:13:15.123Z,6.60
2023-03-07T14:16:20.143Z,6.00
2023-03-07T14:18:55.589Z,7.10
2023-03-07T14:21:29.299Z,7.50
2023-03-07T14:24:08.060Z,7.60
2023-03-07T14:26:38.172Z,7.40
2023-03-07T14:29:21.808Z,7.10
2023-03-07T14:31:52.472Z,7.20
2023-03-07T14:34:29.189Z,7.20
2023-03-07T14:36:59.472Z,7.60
2023-03-07T14:39:55.484Z,7.60
2023-03-07T14:42:33.612Z,6.60
2023-03-07T14:45:22.097Z,7.50
2023-03-07T14:48:06.540Z,7.30
2023-03-07T14:50:33.614Z,7.40
2023-03-07T14:53:12.292Z,6.80
2023-03-07T14:55:40.779Z,7.20
2023-03-07T14:58:07.355Z,8.40
2023-03-07T15:00:35.238Z,7.80
2023-03-07T15:03:04.068Z,7.30
2023-03-07T15:05:36.396Z,7.10
2023-03-07T15:08:03.344Z,7.40
2023-03-07T15:10:41.013Z,7.60
2023-03-07T15:13:13.821Z,8.70
2023-03-07T15:15:45.474Z,7.50
2023-03-07T15:18:19.764Z,8.30
2023-03-07T15:20:47.149Z,8.00
2023-03-07T15:23:20.633Z,7.20
2023-03-07T15:25:48.374Z,7.50
2023-03-07T15:28:23.391Z,7.90
2023-03-07T15:30:53.347Z,7.70
2023-03-07T15:33:22.167Z,7.70
2023-03-07T15:36:13.118Z,7.40
2023-03-07T15:41:29.193Z,6.70
2023-03-07T15:44:11.096Z,7.50
2023-03-07T15:46:41.997Z,7.30
2023-03-07T15:49:26.144Z,7.30
2023-03-07T15:51:55.481Z,7.10
2023-03-07T15:54:28.420Z,7.30
2023-03-07T15:59:28.801Z,8.40
2023-03-07T16:01:55.391Z,9.10
2023-03-07T16:04:42.196Z,8.00
2023-03-07T16:07:17.441Z,7.40
2023-03-07T16:09:43.950Z,9.20
2023-03-07T16:12:15.093Z,8.90
2023-03-07T16:14:41.743Z,8.20
2023-03-07T16:17:26.093Z,8.30
2023-03-07T16:19:52.717Z,9.20
2023-03-07T16:22:19.751Z,9.60
2023-03-07T16:24:46.348Z,9.80
2023-03-07T16:27:20.402Z,8.80
2023-03-07T16:29:47.659Z,8.70
2023-03-07T16:32:16.784Z,7.80
2023-03-07T16:34:44.492Z,7.80
2023-03-07T16:37:11.240Z,7.80
2023-03-07T16:39:38.097Z,9.00
2023-03-07T16:42:06.188Z,8.00
2023-03-07T16:44:38.348Z,7.90
2023-03-07T16:47:08.855Z,7.70
2023-03-07T16:49:35.677Z,7.40
2023-03-07T16:52:05.991Z,8.10
2023-03-07T16:54:33.476Z,7.40
2023-03-07T16:57:00.867Z,6.70
2023-03-07T16:59:33.982Z,8.60
2023-03-07T17:02:01.103Z,7.70
2023-03-07T17:04:27.632Z,10.20
2023-03-07T17:07:04.083Z,9.30
2023-03-07T17:09:31.478Z,9.10
2023-03-07T17:11:58.505Z,8.70
2023-03-07T17:14:25.057Z,8.80
2023-03-07T17:16:51.604Z,8.00
2023-03-07T17:19:27.715Z,8.50
2023-03-07T17:21:55.552Z,10.00
2023-03-07T17:24:22.097Z,8.80
2023-03-07T17:26:49.533Z,8.90
2023-03-07T17:29:23.331Z,8.30
2023-03-07T17:31:49.805Z,8.90
2023-03-07T17:34:28.055Z,8.80
2023-03-07T17:36:55.189Z,8.70
2023-03-07T17:39:22.168Z,8.90
2023-03-07T17:44:18.083Z,9.30
2023-03-07T17:46:44.865Z,9.70
2023-03-07T17:49:12.314Z,9.30
2023-03-07T17:51:39.169Z,9.70
2023-03-07T17:56:32.780Z,8.50
2023-03-07T17:59:02.056Z,10.20
2023-03-07T18:01:29.451Z,9.50
2023-03-07T18:03:56.670Z,11.10
2023-03-07T18:06:23.373Z,9.10
2023-03-07T18:08:49.908Z,9.90
2023-03-07T18:11:16.637Z,9.50
2023-03-07T18:13:43.294Z,9.40
2023-03-07T18:16:10.321Z,8.50
2023-03-07T18:18:45.165Z,8.80
2023-03-07T18:21:21.960Z,9.50
2023-03-07T18:23:52.007Z,8.90
2023-03-07T18:26:20.578Z,8.40
2023-03-07T18:28:48.867Z,10.10
2023-03-07T18:31:17.545Z,10.50
2023-03-07T18:33:44.866Z,8.90
2023-03-07T18:36:14.720Z,8.80
2023-03-07T18:38:42.029Z,9.40
2023-03-07T18:41:17.541Z,9.40
2023-03-07T18:43:44.344Z,9.40
2023-03-07T18:46:15.722Z,9.10
2023-03-07T18:48:42.793Z,9.00
2023-03-07T18:51:11.472Z,7.20
2023-03-07T18:53:38.564Z,8.30
2023-03-07T18:56:13.272Z,9.50
2023-03-07T18:58:40.381Z,8.50
2023-03-07T19:01:10.677Z,8.80
2023-03-07T19:03:37.650Z,8.60
2023-03-07T19:06:04.478Z,8.40
2023-03-07T19:08:31.437Z,9.00
2023-03-07T19:11:01.872Z,9.00
2023-03-07T19:13:29.018Z,9.80
2023-03-07T19:16:11.450Z,9.40
2023-03-07T19:18:38.617Z,11.00
2023-03-07T19:26:05.185Z,9.20
2023-03-07T19:28:37.698Z,8.90
2023-03-07T19:31:09.734Z,8.60
2023-03-07T19:33:41.863Z,8.70
2023-03-07T19:36:14.969Z,9.40
2023-03-07T19:38:42.420Z,8.90
2023-03-07T19:41:12.791Z,8.00
2023-03-07T19:43:40.811Z,7.80
2023-03-07T19:46:09.271Z,9.00
2023-03-07T19:48:42.916Z,8.20
2023-03-07T19:51:18.054Z,8.00
2023-03-07T19:53:45.787Z,7.80
2023-03-07T19:56:16.943Z,8.70
2023-03-07T19:58:43.436Z,9.60
2023-03-07T20:01:12.651Z,8.20
2023-03-07T20:03:40.463Z,8.10
2023-03-07T20:06:08.733Z,7.90
2023-03-07T20:08:35.643Z,8.30
2023-03-07T20:11:17.418Z,8.10
2023-03-07T20:13:47.985Z,8.80
2023-03-07T20:16:16.861Z,8.00
2023-03-07T20:18:44.397Z,8.10
2023-03-07T20:21:13.452Z,7.90
2023-03-07T20:23:43.443Z,9.20
2023-03-07T20:26:13.913Z,7.30
2023-03-07T20:28:41.216Z,8.50
2023-03-07T20:33:36.209Z,8.00
2023-03-07T20:36:24.181Z,8.70
2023-03-07T20:38:55.787Z,9.30
2023-03-07T20:41:24.284Z,10.20
2023-03-07T20:43:52.466Z,8.90
2023-03-07T20:46:22.463Z,10.10
2023-03-07T20:48:51.602Z,9.60
2023-03-07T20:51:21.281Z,9.60
2023-03-07T20:53:50.474Z,8.60
2023-03-07T20:56:18.373Z,11.10
2023-03-07T20:58:45.544Z,9.10
2023-03-07T21:01:14.031Z,10.10
2023-03-07T21:03:40.876Z,9.10
2023-03-07T21:06:07.578Z,8.40
2023-03-07T21:08:35.791Z,7.70
2023-03-07T21:11:05.296Z,7.10
2023-03-07T21:13:35.272Z,7.30
2023-03-07T21:16:06.034Z,6.90
2023-03-07T21:18:33.292Z,7.60
2023-03-07T21:21:24.187Z,6.40
2023-03-07T21:23:50.790Z,6.70
2023-03-07T21:26:25.858Z,6.80
2023-03-07T21:28:52.328Z,7.10
2023-03-07T21:31:21.045Z,6.20
2023-03-07T21:33:58.103Z,7.40
2023-03-07T21:36:33.651Z,6.30
2023-03-07T21:39:03.451Z,6.60
2023-03-07T21:41:29.976Z,7.40
2023-03-07T21:43:57.674Z,7.00
2023-03-07T21:46:24.624Z,6.70
2023-03-07T21:48:51.613Z,6.70
2023-03-07T21:51:18.532Z,7.10
2023-03-07T21:53:45.198Z,6.60
2023-03-07T21:56:13.902Z,7.20
2023-03-07T21:58:40.585Z,8.80
2023-03-07T22:01:11.383Z,8.40
2023-03-07T22:03:38.295Z,8.60
2023-03-07T22:06:09.500Z,8.20
2023-03-07T22:08:36.914Z,8.90
2023-03-07T22:11:05.491Z,7.20
2023-03-07T22:13:33.952Z,7.00
2023-03-07T22:16:02.677Z,6.80
2023-03-07T22:18:30.232Z,7.60
2023-03-07T22:20:56.756Z,7.60
2023-03-07T22:23:25.130Z,7.10
2023-03-07T22:25:52.508Z,7.80
2023-03-07T22:28:19.049Z,7.50
2023-03-07T22:30:46.369Z,7.70
2023-03-07T22:33:12.898Z,7.80
2023-03-07T22:35:39.809Z,7.80
2023-03-07T22:40:32.621Z,8.80
2023-03-07T22:42:59.294Z,8.00
2023-03-07T22:45:25.783Z,7.00
2023-03-07T22:47:52.332Z,6.90
2023-03-07T22:50:18.858Z,6.80
2023-03-07T22:52:45.430Z,8.20
2023-03-07T22:55:12.053Z,7.50
2023-03-07T23:00:06.172Z,7.70
2023-03-07T23:02:32.658Z,7.20
2023-03-07T23:04:59.279Z,8.90
2023-03-07T23:07:25.905Z,9.30
2023-03-07T23:09:52.399Z,9.30
2023-03-07T23:12:18.898Z,10.10
2023-03-07T23:14:45.443Z,9.20
2023-03-07T23:17:12.043Z,9.30
2023-03-07T23:19:38.718Z,8.80
2023-03-07T23:22:06.335Z,7.70
2023-03-07T23:24:32.766Z,8.00
2023-03-07T23:26:59.388Z,8.00
2023-03-07T23:29:25.697Z,8.80
2023-03-07T23:31:52.136Z,7.50
2023-03-07T23:34:19.545Z,8.30
2023-03-07T23:36:46.270Z,9.80
2023-03-07T23:39:14.106Z,9.40
2023-03-07T23:41:40.598Z,8.70
2023-03-07T23:44:07.013Z,9.00
2023-03-07T23:46:33.757Z,8.20
2023-03-07T23:49:00.449Z,7.90
2023-03-07T23:51:26.983Z,9.00
2023-03-07T23:53:53.454Z,9.00
2023-03-07T23:56:20.215Z,9.10
2023-03-07T23:58:53.333Z,8.80
